createdAt,value
2022-09-03T00:01:01.675Z,99.90
2022-09-03T00:03:33.195Z,99.90
2022-09-03T00:06:07.620Z,99.90
2022-09-03T00:08:39.032Z,99.90
2022-09-03T00:11:13.429Z,99.90
2022-09-03T00:13:45.110Z,99.90
2022-09-03T00:16:19.309Z,99.90
2022-09-03T00:18:50.403Z,99.90
2022-09-03T00:21:22.457Z,99.90
2022-09-03T00:23:51.706Z,99.90
2022-09-03T00:26:25.723Z,99.90
2022-09-03T00:28:59.147Z,99.90
2022-09-03T00:31:33.133Z,99.90
2022-09-03T00:34:04.263Z,99.90
2022-09-03T00:36:35.153Z,99.90
2022-09-03T00:39:04.102Z,99.90
2022-09-03T00:41:37.857Z,99.90
2022-09-03T00:44:14.362Z,99.90
2022-09-03T00:46:48.281Z,99.90
2022-09-03T00:49:29.150Z,99.90
2022-09-03T00:52:04.231Z,99.90
2022-09-03T00:54:38.491Z,99.90
2022-09-03T00:57:14.107Z,99.90
2022-09-03T00:59:46.160Z,99.90
2022-09-03T01:02:19.042Z,99.90
2022-09-03T01:04:52.834Z,99.90
2022-09-03T01:07:27.730Z,99.90
2022-09-03T01:10:06.046Z,99.90
2022-09-03T01:12:39.849Z,99.90
2022-09-03T01:15:11.708Z,99.90
2022-09-03T01:17:53.194Z,99.90
2022-09-03T01:20:27.315Z,99.90
2022-09-03T01:23:15.154Z,99.90
2022-09-03T01:25:50.979Z,99.90
2022-09-03T01:28:38.438Z,99.90
2022-09-03T01:31:15.261Z,99.90
2022-09-03T01:33:48.764Z,99.90
2022-09-03T01:36:23.482Z,99.90
2022-09-03T01:38:54.678Z,99.90
2022-09-03T01:41:46.417Z,99.90
2022-09-03T01:44:20.974Z,99.90
2022-09-03T01:46:51.905Z,99.90
2022-09-03T01:49:25.241Z,99.90
2022-09-03T01:51:59.650Z,99.90
2022-09-03T01:54:36.153Z,99.90
2022-09-03T01:57:36.878Z,99.90
2022-09-03T02:00:09.725Z,99.90
2022-09-03T02:02:43.551Z,99.90
2022-09-03T02:05:14.845Z,99.90
2022-09-03T02:07:45.070Z,99.90
2022-09-03T02:10:15.994Z,99.90
2022-09-03T02:12:47.502Z,99.90
2022-09-03T02:15:18.544Z,99.90
2022-09-03T02:17:48.924Z,99.90
2022-09-03T02:20:20.215Z,99.90
2022-09-03T02:22:49.134Z,99.90
2022-09-03T02:25:18.129Z,99.90
2022-09-03T02:27:47.212Z,99.90
2022-09-03T02:30:17.371Z,99.90
2022-09-03T02:32:45.985Z,99.90
2022-09-03T02:35:14.602Z,99.90
2022-09-03T02:37:43.206Z,99.90
2022-09-03T02:40:12.118Z,99.90
2022-09-03T02:42:40.757Z,99.90
2022-09-03T02:45:14.750Z,99.90
2022-09-03T02:47:46.171Z,99.90
2022-09-03T02:50:14.896Z,99.90
2022-09-03T02:52:43.408Z,99.90
2022-09-03T02:55:12.094Z,99.90
2022-09-03T02:57:40.814Z,99.90
2022-09-03T03:00:10.229Z,99.90
2022-09-03T03:02:39.127Z,99.90
2022-09-03T03:05:10.937Z,99.90
2022-09-03T03:07:42.085Z,99.90
2022-09-03T03:10:10.935Z,99.90
2022-09-03T03:12:40.155Z,99.90
2022-09-03T03:15:09.113Z,99.90
2022-09-03T03:17:37.832Z,99.90
2022-09-03T03:20:06.743Z,99.90
2022-09-03T03:22:37.620Z,99.90
2022-09-03T03:25:06.580Z,99.90
2022-09-03T03:27:36.092Z,99.90
2022-09-03T03:30:10.242Z,99.90
2022-09-03T03:32:39.115Z,99.90
2022-09-03T03:35:08.292Z,99.90
2022-09-03T03:37:38.276Z,99.90
2022-09-03T03:40:07.599Z,99.90
2022-09-03T03:42:36.287Z,99.90
2022-09-03T03:45:05.118Z,99.90
2022-09-03T03:47:34.602Z,99.90
2022-09-03T03:50:03.292Z,99.90
2022-09-03T03:52:31.902Z,99.90
2022-09-03T03:55:01.816Z,99.90
2022-09-03T03:57:31.923Z,99.90
2022-09-03T04:00:00.538Z,99.90
2022-09-03T04:02:29.111Z,99.90
2022-09-03T04:04:57.785Z,99.90
2022-09-03T04:07:27.779Z,99.90
2022-09-03T04:09:56.329Z,99.90
2022-09-03T04:12:27.886Z,99.90
2022-09-03T04:14:56.583Z,99.90
2022-09-03T04:17:25.552Z,99.90
2022-09-03T04:19:54.246Z,99.90
2022-09-03T04:22:22.871Z,99.90
2022-09-03T04:24:51.462Z,99.90
2022-09-03T04:27:19.961Z,99.90
2022-09-03T04:29:49.952Z,99.90
2022-09-03T04:32:35.976Z,99.90
2022-09-03T04:35:05.556Z,99.90
2022-09-03T04:37:34.431Z,99.90
2022-09-03T04:40:03.072Z,99.90
2022-09-03T04:42:31.700Z,99.90
2022-09-03T04:45:01.712Z,99.90
2022-09-03T04:47:30.368Z,99.90
2022-09-03T04:49:59.138Z,99.90
2022-09-03T04:52:31.444Z,99.90
2022-09-03T04:55:00.125Z,99.90
2022-09-03T04:57:34.457Z,99.90
2022-09-03T05:00:04.700Z,99.90
2022-09-03T05:02:33.318Z,99.90
2022-09-03T05:05:02.025Z,99.90
2022-09-03T05:07:38.763Z,99.90
2022-09-03T05:10:08.495Z,99.90
2022-09-03T05:12:37.019Z,99.90
2022-09-03T05:15:07.547Z,99.90
2022-09-03T05:17:38.725Z,99.90
2022-09-03T05:20:09.057Z,99.90
2022-09-03T05:22:37.706Z,99.90
2022-09-03T05:25:06.626Z,99.90
2022-09-03T05:27:35.606Z,99.90
2022-09-03T05:30:04.388Z,99.90
2022-09-03T05:32:34.857Z,99.90
2022-09-03T05:35:03.722Z,99.90
2022-09-03T05:37:32.642Z,99.90
2022-09-03T05:40:01.329Z,99.90
2022-09-03T05:42:31.231Z,99.90
2022-09-03T05:45:00.474Z,99.90
2022-09-03T05:47:29.035Z,99.90
2022-09-03T05:49:59.099Z,99.90
2022-09-03T05:52:28.071Z,99.90
2022-09-03T05:54:56.748Z,99.90
2022-09-03T05:57:25.652Z,99.90
2022-09-03T05:59:54.319Z,99.90
2022-09-03T06:02:23.331Z,99.90
2022-09-03T06:04:52.216Z,99.90
2022-09-03T06:07:22.500Z,99.90
2022-09-03T06:09:51.194Z,99.90
2022-09-03T06:12:19.930Z,99.90
2022-09-03T06:14:48.724Z,99.90
2022-09-03T06:17:17.408Z,99.90
2022-09-03T06:19:45.999Z,99.90
2022-09-03T06:22:14.943Z,99.90
2022-09-03T06:24:44.831Z,99.90
2022-09-03T06:27:13.577Z,99.90
2022-09-03T06:29:43.180Z,99.90
2022-09-03T06:32:11.864Z,99.90
2022-09-03T06:34:40.662Z,99.90
2022-09-03T06:37:09.404Z,99.90
2022-09-03T06:39:38.036Z,99.90
2022-09-03T06:42:09.048Z,99.90
2022-09-03T06:44:38.805Z,99.90
2022-09-03T06:47:07.481Z,99.90
2022-09-03T06:49:36.284Z,99.90
2022-09-03T06:52:04.774Z,99.90
2022-09-03T06:54:33.443Z,99.90
2022-09-03T06:57:02.242Z,99.90
2022-09-03T06:59:33.349Z,99.90
2022-09-03T07:02:03.984Z,99.90
2022-09-03T07:04:34.816Z,99.90
2022-09-03T07:07:04.464Z,99.90
2022-09-03T07:09:36.261Z,99.90
2022-09-03T07:12:05.042Z,99.90
2022-09-03T07:14:35.171Z,99.90
2022-09-03T07:17:03.902Z,99.90
2022-09-03T07:19:32.781Z,99.90
2022-09-03T07:22:01.772Z,99.90
2022-09-03T07:24:30.490Z,99.90
2022-09-03T07:26:59.096Z,99.90
2022-09-03T07:29:28.130Z,99.90
2022-09-03T07:31:58.326Z,99.90
2022-09-03T07:34:27.182Z,99.90
2022-09-03T07:36:55.952Z,99.90
2022-09-03T07:39:24.690Z,99.90
2022-09-03T07:41:53.840Z,99.90
2022-09-03T07:44:24.516Z,99.90
2022-09-03T07:46:53.234Z,99.90
2022-09-03T07:49:23.371Z,99.90
2022-09-03T07:51:54.646Z,99.90
2022-09-03T07:54:26.323Z,99.90
2022-09-03T07:56:55.539Z,99.90
2022-09-03T07:59:26.070Z,99.90
2022-09-03T08:01:54.861Z,99.90
2022-09-03T08:04:25.945Z,99.90
2022-09-03T08:06:57.080Z,99.90
2022-09-03T08:09:26.891Z,99.90
2022-09-03T08:11:55.607Z,99.90
2022-09-03T08:14:24.247Z,99.90
2022-09-03T08:16:52.882Z,99.90
2022-09-03T08:19:22.900Z,99.90
2022-09-03T08:21:53.577Z,99.90
2022-09-03T08:24:26.402Z,99.90
2022-09-03T08:26:58.029Z,99.90
2022-09-03T08:29:27.267Z,99.90
2022-09-03T08:31:55.975Z,99.90
2022-09-03T08:34:25.051Z,99.90
2022-09-03T08:36:55.065Z,99.90
2022-09-03T08:39:25.942Z,99.90
2022-09-03T08:42:14.798Z,99.90
2022-09-03T08:44:47.415Z,99.90
2022-09-03T08:47:19.812Z,99.90
2022-09-03T08:49:51.306Z,99.90
2022-09-03T08:52:25.461Z,99.90
2022-09-03T08:54:58.401Z,99.90
2022-09-03T08:57:27.165Z,99.90
2022-09-03T08:59:56.731Z,99.90
2022-09-03T09:02:32.857Z,99.90
2022-09-03T09:05:07.682Z,99.90
2022-09-03T09:07:44.127Z,99.90
2022-09-03T09:10:15.274Z,99.40
2022-09-03T09:12:48.076Z,98.50
2022-09-03T09:15:20.980Z,99.90
2022-09-03T09:17:58.387Z,98.40
2022-09-03T09:20:33.885Z,97.60
2022-09-03T09:23:05.905Z,96.60
2022-09-03T09:25:39.712Z,96.50
2022-09-03T09:28:14.991Z,95.30
2022-09-03T09:30:44.185Z,95.40
2022-09-03T09:33:13.225Z,97.10
2022-09-03T09:35:43.144Z,96.60
2022-09-03T09:38:13.467Z,95.90
2022-09-03T09:40:45.899Z,94.00
2022-09-03T09:43:16.184Z,93.40
2022-09-03T09:45:45.869Z,92.90
2022-09-03T09:48:19.975Z,91.00
2022-09-03T09:50:48.983Z,90.20
2022-09-03T09:53:21.767Z,90.80
2022-09-03T09:55:51.743Z,86.90
2022-09-03T09:58:21.477Z,84.40
2022-09-03T10:01:02.623Z,85.10
2022-09-03T10:03:35.745Z,89.10
2022-09-03T10:06:27.332Z,88.60
2022-09-03T10:09:08.299Z,85.70
2022-09-03T10:11:38.887Z,86.50
2022-09-03T10:14:11.554Z,82.20
2022-09-03T10:16:48.970Z,83.50
2022-09-03T10:19:18.610Z,89.20
2022-09-03T10:21:52.232Z,84.80
2022-09-03T10:24:30.114Z,82.80
2022-09-03T10:26:59.354Z,83.60
2022-09-03T10:29:30.154Z,80.90
2022-09-03T10:32:10.141Z,80.50
2022-09-03T10:34:42.896Z,75.90
2022-09-03T10:37:19.724Z,73.50
2022-09-03T10:40:07.666Z,75.00
2022-09-03T10:42:41.122Z,76.00
2022-09-03T10:45:14.457Z,78.50
2022-09-03T10:48:02.233Z,77.60
2022-09-03T10:50:34.112Z,74.00
2022-09-03T10:53:12.111Z,76.80
2022-09-03T10:55:48.106Z,71.30
2022-09-03T10:58:27.372Z,71.20
2022-09-03T11:01:01.208Z,68.90
2022-09-03T11:03:45.125Z,70.60
2022-09-03T11:06:16.788Z,70.50
2022-09-03T11:08:47.913Z,68.40
2022-09-03T11:11:20.629Z,66.90
2022-09-03T11:13:54.131Z,65.70
2022-09-03T11:16:26.947Z,66.30
2022-09-03T11:18:59.089Z,64.00
2022-09-03T11:21:28.683Z,62.00
2022-09-03T11:24:07.629Z,63.50
2022-09-03T11:26:39.617Z,58.90
2022-09-03T11:29:11.189Z,61.30
2022-09-03T11:31:48.120Z,62.50
2022-09-03T11:34:23.436Z,60.70
2022-09-03T11:37:08.158Z,60.40
2022-09-03T11:39:38.054Z,63.90
2022-09-03T11:42:12.558Z,60.60
2022-09-03T11:44:51.472Z,62.50
2022-09-03T11:47:23.366Z,59.10
2022-09-03T11:49:52.932Z,61.80
2022-09-03T11:52:28.765Z,62.00
2022-09-03T11:54:57.726Z,58.50
2022-09-03T11:57:29.911Z,58.10
2022-09-03T12:00:10.828Z,54.30
2022-09-03T12:02:45.200Z,54.30
2022-09-03T12:05:19.599Z,53.30
2022-09-03T12:08:05.389Z,57.10
2022-09-03T12:10:41.847Z,53.90
2022-09-03T12:13:19.714Z,53.90
2022-09-03T12:15:55.711Z,54.80
2022-09-03T12:18:25.147Z,52.80
2022-09-03T12:21:08.538Z,54.70
2022-09-03T12:23:42.177Z,53.20
2022-09-03T12:26:15.399Z,54.00
2022-09-03T12:28:46.882Z,53.00
2022-09-03T12:31:21.713Z,54.50
2022-09-03T12:33:51.566Z,53.30
2022-09-03T12:36:20.657Z,53.80
2022-09-03T12:39:10.828Z,52.90
2022-09-03T12:41:38.531Z,49.90
2022-09-03T12:44:11.684Z,49.30
2022-09-03T12:46:40.243Z,52.40
2022-09-03T12:52:05.781Z,48.90
2022-09-03T12:54:35.984Z,47.50
2022-09-03T12:57:04.990Z,48.70
2022-09-03T12:59:37.008Z,50.70
2022-09-03T13:02:13.291Z,50.00
2022-09-03T13:07:14.167Z,46.60
2022-09-03T13:09:43.321Z,47.80
2022-09-03T13:12:22.277Z,47.10
2022-09-03T13:14:52.726Z,48.30
2022-09-03T13:17:30.577Z,47.60
2022-09-03T13:20:12.913Z,49.80
2022-09-03T13:22:47.501Z,47.70
2022-09-03T13:25:21.627Z,50.40
2022-09-03T13:27:56.271Z,50.00
2022-09-03T13:30:32.486Z,51.90
2022-09-03T13:33:02.665Z,47.90
2022-09-03T13:35:34.769Z,49.50
2022-09-03T13:38:09.095Z,49.60
2022-09-03T13:40:42.687Z,48.60
2022-09-03T13:43:21.423Z,48.60
2022-09-03T13:45:53.017Z,50.00
2022-09-03T13:48:43.033Z,50.60
2022-09-03T13:51:14.115Z,51.80
2022-09-03T13:53:48.107Z,48.40
2022-09-03T13:56:27.475Z,48.40
2022-09-03T13:58:59.586Z,48.80
2022-09-03T14:01:38.936Z,49.50
2022-09-03T14:04:14.031Z,50.10
2022-09-03T14:06:47.111Z,49.10
2022-09-03T14:09:21.157Z,49.40
2022-09-03T14:11:54.678Z,48.10
2022-09-03T14:14:32.543Z,50.10
2022-09-03T14:17:05.139Z,50.80
2022-09-03T14:19:38.661Z,51.30
2022-09-03T14:22:09.884Z,52.80
2022-09-03T14:24:45.351Z,50.00
2022-09-03T14:27:14.171Z,51.10
2022-09-03T14:29:51.964Z,47.50
2022-09-03T14:32:29.023Z,47.90
2022-09-03T14:35:09.485Z,49.90
2022-09-03T14:37:47.866Z,45.80
2022-09-03T14:40:18.766Z,47.70
2022-09-03T14:42:54.410Z,47.70
2022-09-03T14:45:28.751Z,44.80
2022-09-03T14:48:09.695Z,45.20
2022-09-03T14:50:45.316Z,46.10
2022-09-03T14:53:28.788Z,49.10
2022-09-03T14:56:16.254Z,46.10
2022-09-03T14:59:01.841Z,46.20
2022-09-03T15:01:38.841Z,45.60
2022-09-03T15:04:23.161Z,47.40
2022-09-03T15:07:02.329Z,48.00
2022-09-03T15:09:34.149Z,49.40
2022-09-03T15:12:07.633Z,50.20
2022-09-03T15:14:39.928Z,51.20
2022-09-03T15:17:21.368Z,49.20
2022-09-03T15:19:57.498Z,49.10
2022-09-03T15:22:37.978Z,49.20
2022-09-03T15:25:12.649Z,49.70
2022-09-03T15:27:49.890Z,48.50
2022-09-03T15:30:20.266Z,48.00
2022-09-03T15:32:59.653Z,49.90
2022-09-03T15:35:35.698Z,50.40
2022-09-03T15:38:08.676Z,50.10
2022-09-03T15:48:09.002Z,55.60
2022-09-03T15:53:17.115Z,58.30
2022-09-03T15:55:46.701Z,49.40
2022-09-03T15:58:22.177Z,61.30
2022-09-03T16:00:53.423Z,64.40
2022-09-03T16:03:24.642Z,64.40
2022-09-03T16:05:56.638Z,50.50
2022-09-03T16:08:30.992Z,54.60
2022-09-03T16:11:04.938Z,71.80
2022-09-03T16:13:57.718Z,73.00
2022-09-03T16:16:31.035Z,67.80
2022-09-03T16:19:03.448Z,72.10
2022-09-03T16:21:34.778Z,68.40
2022-09-03T16:24:06.814Z,66.40
2022-09-03T16:26:37.185Z,60.00
2022-09-03T16:29:08.882Z,57.90
2022-09-03T16:31:44.869Z,52.40
2022-09-03T16:34:19.044Z,51.60
2022-09-03T16:36:52.161Z,52.00
2022-09-03T16:39:27.454Z,52.00
2022-09-03T16:42:02.964Z,52.80
2022-09-03T16:44:35.010Z,53.20
2022-09-03T16:47:09.022Z,54.10
2022-09-03T16:49:42.466Z,56.20
2022-09-03T16:52:16.251Z,57.00
2022-09-03T16:54:56.047Z,56.70
2022-09-03T16:57:32.826Z,58.00
2022-09-03T17:00:08.084Z,58.60
2022-09-03T17:02:51.916Z,58.50
2022-09-03T17:05:38.330Z,59.30
2022-09-03T17:08:28.676Z,61.70
2022-09-03T17:11:04.658Z,61.70
2022-09-03T17:13:43.277Z,63.20
2022-09-03T17:16:24.642Z,66.20
2022-09-03T17:18:59.041Z,68.30
2022-09-03T17:21:40.882Z,69.40
2022-09-03T17:24:27.524Z,71.80
2022-09-03T17:27:15.847Z,77.30
2022-09-03T17:29:58.127Z,88.50
2022-09-03T17:32:32.265Z,91.30
2022-09-03T17:35:12.095Z,91.80
2022-09-03T17:37:51.117Z,91.80
2022-09-03T17:40:25.663Z,91.70
2022-09-03T17:43:00.518Z,94.90
2022-09-03T17:45:38.032Z,94.40
2022-09-03T17:48:21.927Z,96.90
2022-09-03T17:50:53.383Z,97.50
2022-09-03T17:53:26.137Z,98.80
2022-09-03T17:55:57.391Z,99.90
2022-09-03T17:58:31.490Z,99.90
2022-09-03T18:01:04.336Z,99.90
2022-09-03T18:03:37.449Z,99.90
2022-09-03T18:06:11.506Z,99.90
2022-09-03T18:08:48.729Z,99.90
2022-09-03T18:11:20.547Z,99.90
2022-09-03T18:13:55.815Z,99.90
2022-09-03T18:16:29.651Z,99.90
2022-09-03T18:19:03.964Z,99.90
2022-09-03T18:21:55.782Z,99.90
2022-09-03T18:24:50.887Z,99.90
2022-09-03T18:27:46.928Z,99.90
2022-09-03T18:30:36.514Z,99.90
2022-09-03T18:33:22.941Z,99.90
2022-09-03T18:36:10.014Z,99.90
2022-09-03T18:38:57.461Z,99.90
2022-09-03T18:41:52.931Z,99.90
2022-09-03T18:44:46.171Z,99.90
2022-09-03T18:50:53.056Z,99.90
2022-09-03T18:53:46.180Z,99.90
2022-09-03T18:56:34.281Z,99.90
2022-09-03T18:59:28.119Z,99.90
2022-09-03T19:02:14.823Z,99.90
2022-09-03T19:05:09.801Z,99.90
2022-09-03T19:08:01.929Z,99.90
2022-09-03T19:10:52.399Z,99.90
2022-09-03T19:13:46.764Z,99.90
2022-09-03T19:16:37.769Z,99.90
2022-09-03T19:19:42.724Z,99.90
2022-09-03T19:22:31.361Z,99.90
2022-09-03T19:25:19.812Z,99.90
2022-09-03T19:28:10.447Z,99.90
2022-09-03T19:31:05.731Z,99.90
2022-09-03T19:33:55.232Z,99.90
2022-09-03T19:36:45.943Z,99.90
2022-09-03T19:39:39.505Z,99.90
2022-09-03T19:42:29.496Z,99.90
2022-09-03T19:45:20.824Z,99.90
2022-09-03T19:48:14.811Z,99.90
2022-09-03T19:51:04.015Z,99.90
2022-09-03T19:53:51.259Z,99.90
2022-09-03T19:56:41.885Z,99.90
2022-09-03T19:59:31.247Z,99.90
2022-09-03T20:02:18.144Z,99.90
2022-09-03T20:05:06.498Z,99.90
2022-09-03T20:07:52.442Z,99.90
2022-09-03T20:10:23.847Z,99.90
2022-09-03T20:13:04.345Z,99.90
2022-09-03T20:15:38.874Z,99.90
2022-09-03T20:18:14.065Z,99.90
2022-09-03T20:20:45.938Z,99.90
2022-09-03T20:23:21.032Z,99.90
2022-09-03T20:25:54.634Z,99.90
2022-09-03T20:28:32.309Z,99.90
2022-09-03T20:31:03.417Z,99.90
2022-09-03T20:33:36.937Z,99.90
2022-09-03T20:36:11.645Z,99.90
2022-09-03T20:38:59.067Z,99.90
2022-09-03T20:41:34.408Z,99.90
2022-09-03T20:44:16.850Z,99.90
2022-09-03T20:46:58.205Z,99.90
2022-09-03T20:49:35.508Z,99.90
2022-09-03T20:52:07.572Z,99.90
2022-09-03T20:54:38.349Z,99.90
2022-09-03T20:57:18.843Z,99.90
2022-09-03T20:59:57.158Z,99.90
2022-09-03T21:02:30.669Z,99.90
2022-09-03T21:05:06.448Z,99.90
2022-09-03T21:07:46.235Z,99.90
2022-09-03T21:10:25.189Z,99.90
2022-09-03T21:12:59.696Z,99.90
2022-09-03T21:15:36.481Z,99.90
2022-09-03T21:18:08.836Z,99.90
2022-09-03T21:20:42.045Z,99.90
2022-09-03T21:23:17.056Z,99.90
2022-09-03T21:25:49.572Z,99.90
2022-09-03T21:28:24.557Z,99.90
2022-09-03T21:30:57.153Z,99.90
2022-09-03T21:33:30.513Z,99.90
2022-09-03T21:36:07.080Z,99.90
2022-09-03T21:38:41.703Z,99.90
2022-09-03T21:41:16.773Z,99.90
2022-09-03T21:43:48.594Z,99.90
2022-09-03T21:46:21.945Z,99.90
2022-09-03T21:48:52.752Z,99.90
2022-09-03T21:51:24.194Z,99.90
2022-09-03T21:53:57.187Z,99.90
2022-09-03T21:56:36.413Z,99.90
2022-09-03T21:59:09.476Z,99.90
2022-09-03T22:01:46.046Z,99.90
2022-09-03T22:04:15.836Z,99.90
2022-09-03T22:06:48.073Z,99.90
2022-09-03T22:09:19.976Z,99.90
2022-09-03T22:11:51.401Z,99.90
2022-09-03T22:14:21.294Z,99.90
2022-09-03T22:16:55.360Z,99.90
2022-09-03T22:19:24.374Z,99.90
2022-09-03T22:21:59.300Z,99.90
2022-09-03T22:24:34.561Z,99.90
2022-09-03T22:27:05.416Z,99.90
2022-09-03T22:29:39.769Z,99.90
2022-09-03T22:32:21.909Z,99.90
2022-09-03T22:35:06.762Z,99.90
2022-09-03T22:37:43.514Z,99.90
2022-09-03T22:40:19.192Z,99.90
2022-09-03T22:43:02.889Z,99.90
2022-09-03T22:45:40.440Z,99.90
2022-09-03T22:48:15.926Z,99.90
2022-09-03T22:50:52.163Z,99.90
2022-09-03T22:53:25.204Z,99.90
2022-09-03T22:55:58.284Z,99.90
2022-09-03T22:58:29.564Z,99.90
2022-09-03T23:01:02.377Z,99.90
2022-09-03T23:03:37.079Z,99.90
2022-09-03T23:06:08.215Z,99.90
2022-09-03T23:08:41.037Z,99.90
2022-09-03T23:11:13.670Z,99.90
2022-09-03T23:13:44.020Z,99.90
2022-09-03T23:16:14.732Z,99.90
2022-09-03T23:18:46.994Z,99.90
2022-09-03T23:21:22.278Z,99.90
2022-09-03T23:23:54.053Z,99.90
2022-09-03T23:26:25.341Z,99.90
2022-09-03T23:28:58.553Z,99.90
2022-09-03T23:31:28.789Z,99.90
2022-09-03T23:33:59.195Z,99.90
2022-09-03T23:36:57.765Z,99.90
2022-09-03T23:39:30.273Z,99.90
2022-09-03T23:42:06.320Z,99.90
2022-09-03T23:44:41.436Z,99.90
2022-09-03T23:47:18.405Z,99.90
2022-09-03T23:49:54.438Z,99.90
2022-09-03T23:52:38.295Z,99.90
2022-09-03T23:55:12.064Z,99.90
2022-09-03T23:57:41.743Z,99.90
